Time;durP1;ratioP1;P1;durP2;ratioP2;P2;SDS_P1;SDS_P2;PMS_P1;PMS_P2;Temp;Humidity;BMP_temperature;BMP_pressure;BME280_temperature;BME280_humidity;BME280_pressure;Samples;Min_cycle;Max_cycle;Signal;HPM_P1;HPM_P2
2022/08/11 00:02:32;;;;;;;5.70;4.55;;;14.20;99.90;;;;;;5009202;28;20365;-43
2022/08/11 00:05:05;;;;;;;9.43;4.60;;;14.00;99.90;;;;;;5008335;28;20041;-42
2022/08/11 00:07:31;;;;;;;12.02;5.70;;;14.00;99.90;;;;;;5008211;28;20507;-41
2022/08/11 00:09:58;;;;;;;8.40;5.80;;;13.90;99.90;;;;;;5008794;28;20072;-42
2022/08/11 00:12:24;;;;;;;10.60;6.68;;;14.00;99.90;;;;;;5008405;28;20132;-42
2022/08/11 00:14:59;;;;;;;7.65;6.20;;;14.00;99.90;;;;;;5008331;28;20081;-41
2022/08/11 00:17:31;;;;;;;10.15;6.75;;;13.90;99.90;;;;;;5008267;28;20161;-42
2022/08/11 00:20:02;;;;;;;12.40;7.47;;;14.00;99.90;;;;;;5008273;28;20476;-43
2022/08/11 00:22:29;;;;;;;8.10;5.82;;;14.00;99.90;;;;;;5008338;28;20046;-41
2022/08/11 00:24:56;;;;;;;9.00;6.10;;;14.00;99.90;;;;;;5006937;28;20100;-42
2022/08/11 00:27:48;;;;;;;9.57;5.82;;;14.00;99.90;;;;;;5008503;28;20045;-42
2022/08/11 00:30:15;;;;;;;9.55;5.82;;;14.00;99.90;;;;;;5006019;28;20054;-42
2022/08/11 00:32:43;;;;;;;12.07;6.90;;;13.90;99.90;;;;;;5008252;28;20052;-42
2022/08/11 00:35:16;;;;;;;10.95;7.32;;;13.90;99.90;;;;;;5008464;28;20034;-42
2022/08/11 00:37:48;;;;;;;11.30;7.70;;;13.90;99.90;;;;;;5007779;28;20361;-42
2022/08/11 00:40:19;;;;;;;9.85;7.63;;;14.60;99.90;;;;;;5007718;28;20041;-42
2022/08/11 00:43:00;;;;;;;9.25;7.45;;;14.00;99.90;;;;;;5007365;28;20519;-43
2022/08/11 00:45:45;;;;;;;10.90;8.98;;;14.00;99.90;;;;;;5007604;28;20099;-42
2022/08/11 00:48:58;;;;;;;10.48;7.22;;;14.00;99.90;;;;;;5007447;28;20046;-42
2022/08/11 00:51:44;;;;;;;10.43;7.57;;;14.00;99.90;;;;;;4946818;28;20108;-41
2022/08/11 00:54:31;;;;;;;8.50;7.32;;;14.00;99.90;;;;;;5007163;28;20050;-42
2022/08/11 00:57:29;;;;;;;13.80;8.07;;;14.00;99.90;;;;;;5007722;28;20156;-42
2022/08/11 01:00:09;;;;;;;11.75;8.35;;;14.00;99.90;;;;;;5007375;28;20076;-42
2022/08/11 01:02:54;;;;;;;10.35;7.75;;;14.00;99.90;;;;;;5006884;28;20542;-42
2022/08/11 01:05:26;;;;;;;10.82;8.05;;;13.90;99.90;;;;;;5001216;28;20467;-42
2022/08/11 01:08:04;;;;;;;9.27;6.80;;;13.90;99.90;;;;;;5007462;28;20050;-42
2022/08/11 01:10:42;;;;;;;7.97;7.05;;;13.80;99.90;;;;;;5007559;28;20053;-41
2022/08/11 01:13:50;;;;;;;8.70;6.40;;;13.70;99.90;;;;;;5007544;28;20045;-43
2022/08/11 01:16:53;;;;;;;10.63;8.32;;;13.70;99.90;;;;;;4984456;28;20053;-42
2022/08/11 01:19:26;;;;;;;8.43;7.43;;;13.60;99.90;;;;;;5007444;28;20054;-42
2022/08/11 01:22:04;;;;;;;12.10;7.97;;;13.50;99.90;;;;;;5007806;28;20072;-44
2022/08/11 01:24:56;;;;;;;12.25;9.45;;;14.10;99.90;;;;;;5007099;28;20092;-43
2022/08/11 01:27:25;;;;;;;14.75;8.38;;;13.50;99.90;;;;;;4983961;28;20054;-42
2022/08/11 01:30:09;;;;;;;12.52;9.07;;;13.50;99.90;;;;;;5007954;28;20068;-42
2022/08/11 01:33:00;;;;;;;16.45;9.30;;;13.50;99.90;;;;;;5005966;28;20054;-42
2022/08/11 01:35:51;;;;;;;10.80;7.72;;;13.50;99.90;;;;;;5006174;28;20522;-42
2022/08/11 01:38:41;;;;;;;10.77;7.40;;;13.50;99.90;;;;;;5007295;28;20049;-41
2022/08/11 01:41:25;;;;;;;6.47;5.45;;;13.40;99.90;;;;;;5007737;28;20432;-43
2022/08/11 01:44:38;;;;;;;6.32;5.43;;;13.30;99.90;;;;;;5007262;28;20057;-42
2022/08/11 01:48:01;;;;;;;8.00;4.85;;;13.20;99.90;;;;;;5006622;28;20046;-41
2022/08/11 01:50:27;;;;;;;6.05;4.82;;;13.10;99.90;;;;;;4999342;28;20392;-42
2022/08/11 01:53:38;;;;;;;6.30;4.57;;;13.00;99.90;;;;;;5006785;28;20488;-41
2022/08/11 01:56:18;;;;;;;4.95;4.07;;;13.00;99.90;;;;;;4990237;28;20137;-41
2022/08/11 01:58:56;;;;;;;6.85;4.40;;;12.80;99.90;;;;;;5006726;28;20060;-42
2022/08/11 02:01:49;;;;;;;5.80;5.20;;;12.70;99.90;;;;;;5006890;28;20120;-42
2022/08/11 02:04:38;;;;;;;4.95;4.10;;;12.70;99.90;;;;;;5006573;28;20049;-41
2022/08/11 02:07:14;;;;;;;5.05;4.13;;;12.60;99.90;;;;;;5006749;28;20038;-42
2022/08/11 02:09:43;;;;;;;4.90;3.83;;;12.70;99.90;;;;;;5007219;28;20050;-41
2022/08/11 02:12:25;;;;;;;4.45;2.80;;;12.60;99.90;;;;;;5006716;28;20092;-41
2022/08/11 02:15:21;;;;;;;5.60;4.15;;;12.50;99.90;;;;;;5006872;28;20045;-41
2022/08/11 02:17:58;;;;;;;3.90;3.33;;;12.50;99.90;;;;;;5006387;28;20427;-42
2022/08/11 02:23:46;;;;;;;3.22;2.60;;;12.40;99.90;;;;;;5006591;28;20502;-41
2022/08/11 02:26:29;;;;;;;2.63;2.30;;;12.40;99.90;;;;;;5006351;28;20480;-43
2022/08/11 02:29:20;;;;;;;2.05;1.83;;;12.30;99.90;;;;;;5006759;28;20107;-42
2022/08/11 02:34:57;;;;;;;4.50;3.65;;;12.20;99.90;;;;;;5006670;28;20400;-43
2022/08/11 02:37:32;;;;;;;4.35;3.38;;;12.20;99.90;;;;;;5006408;28;20108;-42
2022/08/11 02:39:57;;;;;;;4.45;3.35;;;12.10;99.90;;;;;;5006326;28;20041;-42
2022/08/11 02:42:47;;;;;;;6.22;4.80;;;12.10;99.90;;;;;;5005848;28;20049;-42
2022/08/11 02:45:40;;;;;;;8.40;6.60;;;12.10;99.90;;;;;;5005703;28;20157;-42
2022/08/11 02:51:18;;;;;;;12.65;9.32;;;12.00;99.90;;;;;;5010197;28;20502;-41
2022/08/11 02:54:06;;;;;;;11.60;9.95;;;12.00;99.90;;;;;;5010526;28;20072;-42
2022/08/11 02:56:55;;;;;;;7.07;6.00;;;12.00;99.90;;;;;;5010311;28;20046;-42
2022/08/11 03:00:00;;;;;;;5.22;3.90;;;11.90;99.90;;;;;;5010600;28;20045;-42
2022/08/11 03:02:49;;;;;;;5.55;4.35;;;11.90;99.90;;;;;;5010010;28;20071;-43
2022/08/11 03:08:22;;;;;;;9.52;6.10;;;11.80;99.90;;;;;;5027325;28;20065;-43
2022/08/11 03:17:22;;;;;;;2.58;1.77;;;11.60;99.90;;;;;;5029304;28;20063;-43
2022/08/11 03:20:10;;;;;;;3.15;1.73;;;11.50;99.90;;;;;;5029212;28;20049;-42
2022/08/11 03:23:01;;;;;;;2.65;1.48;;;11.60;99.90;;;;;;5028957;28;20632;-42
2022/08/11 03:25:53;;;;;;;2.42;1.67;;;11.50;99.90;;;;;;5028557;28;20053;-43
2022/08/11 03:29:00;;;;;;;7.28;1.55;;;11.50;99.90;;;;;;5028245;28;20613;-42
2022/08/11 03:31:28;;;;;;;2.40;1.50;;;11.50;99.90;;;;;;5025965;28;20053;-41
2022/08/11 03:34:20;;;;;;;2.35;1.15;;;12.10;99.90;;;;;;5029306;28;20050;-42
2022/08/11 03:37:10;;;;;;;3.40;1.50;;;11.40;99.90;;;;;;5029216;28;20045;-43
2022/08/11 03:39:53;;;;;;;3.45;1.70;;;11.40;99.90;;;;;;5009502;28;20222;-43
2022/08/11 03:43:02;;;;;;;4.03;1.90;;;11.30;99.90;;;;;;5008971;28;20400;-43
2022/08/11 03:45:55;;;;;;;5.90;3.00;;;11.30;99.90;;;;;;5009210;28;20396;-42
2022/08/11 03:48:39;;;;;;;2.95;2.10;;;11.20;99.90;;;;;;5009554;28;20393;-41
2022/08/11 03:51:20;;;;;;;3.25;2.53;;;11.30;99.90;;;;;;5009442;28;20041;-41
2022/08/11 03:54:02;;;;;;;2.90;1.83;;;11.20;99.90;;;;;;5008734;28;20050;-44
2022/08/11 03:56:42;;;;;;;4.20;1.67;;;11.90;99.90;;;;;;5008535;28;20392;-43
2022/08/11 03:59:28;;;;;;;2.55;1.00;;;11.10;99.90;;;;;;5007579;28;20046;-41
2022/08/11 04:02:09;;;;;;;3.83;1.70;;;11.10;99.90;;;;;;5008574;28;20373;-43
2022/08/11 04:04:59;;;;;;;5.28;3.25;;;11.10;99.90;;;;;;5008730;28;20053;-43
2022/08/11 04:07:55;;;;;;;7.15;3.95;;;11.10;99.90;;;;;;5008414;28;20507;-42
2022/08/11 04:10:58;;;;;;;91.60;7.72;;;11.10;99.90;;;;;;4990566;28;20081;-43
2022/08/11 04:15:59;;;;;;;6.35;3.88;;;11.10;99.90;;;;;;5008040;28;20046;-42
2022/08/11 04:17:04;;;;;;;5.68;2.92;;;11.20;99.90;;;;;;5008279;28;20583;-43
2022/08/11 04:19:44;;;;;;;4.72;2.78;;;11.10;99.90;;;;;;5008607;28;20112;-42
2022/08/11 04:22:50;;;;;;;115.60;8.13;;;11.20;99.90;;;;;;5008593;28;20049;-42
2022/08/11 04:25:23;;;;;;;10.35;4.65;;;11.20;99.90;;;;;;5008515;28;20522;-41
2022/08/11 04:28:17;;;;;;;3.88;2.50;;;11.20;99.90;;;;;;5008396;28;20085;-42
2022/08/11 04:31:01;;;;;;;29.83;4.38;;;11.30;99.90;;;;;;5007874;28;20148;-44
2022/08/11 04:33:39;;;;;;;42.10;6.20;;;12.10;99.90;;;;;;5007681;28;20129;-42
2022/08/11 04:37:30;;;;;;;78.85;7.75;;;11.30;99.90;;;;;;5007961;28;20555;-43
2022/08/11 04:39:39;;;;;;;155.50;10.00;;;11.40;99.90;;;;;;5025318;28;20052;-42
2022/08/11 04:45:33;;;;;;;271.88;17.58;;;11.70;99.90;;;;;;5028072;28;20056;-44
2022/08/11 05:03:27;;;;;;;26.08;9.38;;;12.40;99.90;;;;;;5027858;28;20162;-43
2022/08/11 05:06:09;;;;;;;84.55;15.40;;;12.50;99.90;;;;;;5026167;28;20077;-42
2022/08/11 05:09:11;;;;;;;85.75;13.95;;;12.60;99.90;;;;;;5023921;28;20110;-41
2022/08/11 05:12:09;;;;;;;106.80;14.88;;;12.70;99.90;;;;;;5024287;28;20072;-42
2022/08/11 05:35:30;;;;;;;18.40;15.38;;;14.70;99.90;;;;;;5024473;28;20411;-42
2022/08/11 05:57:26;;;;;;;14.80;11.85;;;16.20;99.90;;;;;;5025639;28;20075;-51
2022/08/11 05:59:59;;;;;;;13.82;9.48;;;17.70;99.90;;;;;;5024197;28;20760;-50
2022/08/11 06:02:25;;;;;;;11.18;8.60;;;19.30;99.90;;;;;;5025459;28;20107;-51
2022/08/11 06:04:57;;;;;;;11.68;8.82;;;19.50;99.90;;;;;;5025514;28;20128;-51
2022/08/11 06:07:30;;;;;;;9.88;8.88;;;21.10;99.90;;;;;;5025412;28;20049;-52
2022/08/11 06:09:58;;;;;;;11.05;8.25;;;22.70;99.90;;;;;;5025652;28;20075;-52
2022/08/11 06:12:31;;;;;;;15.32;8.75;;;23.80;99.90;;;;;;5016068;28;20335;-53
2022/08/11 06:15:01;;;;;;;10.63;7.65;;;23.50;98.80;;;;;;5023934;28;20092;-52
2022/08/11 06:17:30;;;;;;;8.65;7.72;;;22.50;99.40;;;;;;5025644;28;20046;-53
2022/08/11 06:20:01;;;;;;;11.07;7.50;;;21.70;99.90;;;;;;5025343;28;20053;-52
2022/08/11 06:22:28;;;;;;;9.05;7.22;;;21.30;99.90;;;;;;5024535;28;20049;-43
2022/08/11 06:25:00;;;;;;;10.73;7.50;;;21.10;99.90;;;;;;5025188;28;20061;-43
2022/08/11 06:27:28;;;;;;;7.25;6.47;;;21.00;99.90;;;;;;5025306;28;20563;-43
2022/08/11 06:29:55;;;;;;;8.18;6.78;;;22.00;99.90;;;;;;5025442;28;20049;-45
2022/08/11 06:32:31;;;;;;;7.75;6.90;;;23.60;99.90;;;;;;5025066;28;20511;-44
2022/08/11 06:35:18;;;;;;;12.63;7.00;;;24.70;96.60;;;;;;5022540;28;20042;-45
2022/08/11 06:38:05;;;;;;;7.65;5.78;;;25.90;93.30;;;;;;5022513;28;20447;-44
2022/08/11 06:44:09;;;;;;;10.30;5.38;;;24.70;92.60;;;;;;5025133;28;20046;-43
2022/08/11 06:46:54;;;;;;;9.40;5.68;;;23.90;93.70;;;;;;5024119;28;20092;-44
2022/08/11 06:52:13;;;;;;;9.90;5.95;;;23.00;97.50;;;;;;5023639;28;20053;-45
2022/08/11 06:54:43;;;;;;;9.23;5.85;;;23.60;97.50;;;;;;5025172;28;20095;-44
2022/08/11 07:00:26;;;;;;;7.68;5.57;;;24.70;93.70;;;;;;5024456;28;20043;-44
2022/08/11 07:03:10;;;;;;;8.02;5.22;;;24.20;94.70;;;;;;5023788;28;20041;-43
2022/08/11 07:05:42;;;;;;;8.77;5.32;;;24.50;94.60;;;;;;5024792;28;20089;-45
2022/08/11 07:17:25;;;;;;;9.00;5.30;;;25.20;88.10;;;;;;5025782;28;19928;-43
2022/08/11 07:31:16;;;;;;;5.97;4.00;;;24.80;98.30;;;;;;5023747;28;20037;-54
2022/08/11 07:33:48;;;;;;;4.75;4.22;;;26.20;97.60;;;;;;5023605;28;20033;-54
2022/08/11 07:36:15;;;;;;;8.00;4.13;;;26.70;96.70;;;;;;5027089;28;20152;-53
2022/08/11 07:38:49;;;;;;;5.78;4.00;;;26.20;97.00;;;;;;5026630;28;20037;-53
2022/08/11 07:41:21;;;;;;;9.25;3.30;;;26.20;96.60;;;;;;5024718;28;20095;-53
2022/08/11 07:43:51;;;;;;;5.43;3.05;;;26.90;95.40;;;;;;5027089;28;20041;-55
2022/08/11 07:54:36;;;;;;;4.10;2.63;;;29.80;89.30;;;;;;5025713;28;20687;-55
2022/08/11 08:19:17;;;;;;;4.13;0.98;;;28.80;73.50;;;;;;5027993;28;20446;-55
2022/08/11 08:21:44;;;;;;;4.75;1.73;;;31.10;67.90;;;;;;5023810;28;20330;-56
2022/08/11 08:24:11;;;;;;;5.63;1.35;;;33.20;63.00;;;;;;5025965;28;20144;-55
2022/08/11 08:32:09;;;;;;;2.85;0.43;;;37.20;54.70;;;;;;5025181;28;20075;-55
2022/08/11 08:34:36;;;;;;;2.67;0.30;;;38.70;51.80;;;;;;5026323;28;20095;-55
2022/08/11 08:37:04;;;;;;;2.38;0.47;;;39.80;50.50;;;;;;5025946;28;20108;-55
2022/08/11 08:39:33;;;;;;;1.48;0.50;;;40.50;48.60;;;;;;5025103;28;20053;-56
2022/08/11 08:42:05;;;;;;;1.55;0.50;;;41.10;46.30;;;;;;5027035;28;20495;-55
2022/08/11 08:44:34;;;;;;;6.72;0.52;;;41.60;44.90;;;;;;5026161;28;20395;-55
2022/08/11 08:47:02;;;;;;;4.20;0.55;;;41.80;44.60;;;;;;5027319;28;20050;-55
2022/08/11 08:49:35;;;;;;;4.10;0.70;;;42.10;44.10;;;;;;5027598;28;20049;-54
2022/08/11 08:52:03;;;;;;;2.50;0.47;;;42.40;43.40;;;;;;5026689;28;20037;-55
2022/08/11 08:54:36;;;;;;;3.10;0.40;;;43.00;43.00;;;;;;5027119;28;20049;-54
2022/08/11 08:57:08;;;;;;;4.85;0.65;;;43.20;42.10;;;;;;5024458;28;20045;-54
2022/08/11 08:59:40;;;;;;;3.22;0.50;;;43.30;41.10;;;;;;5026456;28;20483;-52
2022/08/11 09:02:11;;;;;;;1.17;0.30;;;43.60;41.30;;;;;;5024371;28;20083;-51
2022/08/11 09:04:39;;;;;;;1.42;0.30;;;44.10;41.60;;;;;;5026783;28;20033;-52
2022/08/11 09:07:14;;;;;;;3.60;0.40;;;44.50;42.30;;;;;;5025811;28;20087;-51
2022/08/11 09:09:59;;;;;;;1.35;0.30;;;44.70;41.60;;;;;;5026901;28;20041;-51
2022/08/11 09:12:30;;;;;;;3.80;0.45;;;45.00;40.70;;;;;;5023877;28;20069;-51
2022/08/11 09:15:00;;;;;;;1.52;0.47;;;45.20;39.60;;;;;;5026135;28;20120;-52
2022/08/11 09:17:28;;;;;;;3.20;0.38;;;45.30;39.10;;;;;;5023374;28;20053;-52
2022/08/11 09:20:10;;;;;;;3.83;0.40;;;45.40;38.50;;;;;;5026171;28;20076;-51
2022/08/11 09:28:13;;;;;;;1.67;0.30;;;46.00;37.20;;;;;;5024325;28;20049;-54
2022/08/11 09:30:44;;;;;;;2.20;0.30;;;46.30;37.80;;;;;;5023907;28;20040;-54
2022/08/11 09:33:15;;;;;;;2.42;0.40;;;46.20;36.00;;;;;;5026361;28;20048;-55
2022/08/11 09:35:42;;;;;;;3.78;0.40;;;46.40;36.30;;;;;;5005980;28;20376;-55
2022/08/11 09:40:59;;;;;;;1.80;0.30;;;46.60;37.70;;;;;;5024842;28;20052;-54
2022/08/11 09:46:12;;;;;;;1.50;0.30;;;46.20;36.00;;;;;;5025779;28;20407;-55
2022/08/11 09:48:45;;;;;;;4.22;0.30;;;46.00;35.70;;;;;;5026664;28;20052;-54
2022/08/11 09:51:12;;;;;;;4.03;0.73;;;46.00;35.80;;;;;;5018231;28;20380;-54
2022/08/11 09:53:41;;;;;;;3.70;0.22;;;45.90;36.00;;;;;;5027272;28;20037;-55
2022/08/11 09:59:06;;;;;;;1.30;0.30;;;45.00;35.60;;;;;;5022729;28;20794;-55
2022/08/11 10:01:45;;;;;;;1.08;0.30;;;44.60;35.80;;;;;;5025835;28;20041;-55
2022/08/11 10:04:34;;;;;;;2.67;0.20;;;44.60;36.00;;;;;;5024586;28;20044;-55
2022/08/11 10:07:05;;;;;;;3.65;0.68;;;44.60;36.40;;;;;;5024648;28;20132;-54
2022/08/11 10:09:47;;;;;;;1.40;0.20;;;44.10;35.50;;;;;;5024886;28;20045;-55
2022/08/11 10:12:26;;;;;;;0.90;0.20;;;43.70;36.60;;;;;;5024803;28;20099;-55
2022/08/11 10:18:40;;;;;;;2.13;0.30;;;43.20;37.50;;;;;;5025398;28;20051;-55
2022/08/11 10:20:33;;;;;;;2.53;0.20;;;43.00;37.10;;;;;;5025742;28;20477;-54
2022/08/11 10:28:29;;;;;;;2.38;0.40;;;41.40;37.90;;;;;;5024972;28;20479;-54
2022/08/11 10:34:02;;;;;;;1.48;0.20;;;40.40;39.40;;;;;;5025908;28;20044;-54
2022/08/11 10:36:30;;;;;;;3.00;0.30;;;39.70;39.30;;;;;;5023663;28;20046;-55
2022/08/11 10:38:57;;;;;;;1.45;0.32;;;39.20;39.10;;;;;;5025243;28;20048;-54
2022/08/11 10:44:10;;;;;;;0.98;0.32;;;39.40;37.80;;;;;;5021200;28;20045;-54
2022/08/11 10:49:24;;;;;;;2.53;0.30;;;40.00;38.50;;;;;;5022376;28;20149;-53
2022/08/11 11:00:08;;;;;;;2.22;0.30;;;37.50;39.40;;;;;;5025033;28;20440;-54
2022/08/11 11:02:34;;;;;;;1.58;0.30;;;36.50;40.30;;;;;;5007473;28;20051;-54
2022/08/11 11:05:00;;;;;;;1.83;0.30;;;35.70;39.90;;;;;;5025187;28;20426;-51
2022/08/11 11:07:35;;;;;;;2.13;0.50;;;35.00;41.90;;;;;;5024657;28;20080;-54
2022/08/11 11:10:04;;;;;;;3.90;0.40;;;34.40;43.20;;;;;;5027139;28;20073;-53
2022/08/11 11:18:18;;;;;;;1.52;0.55;;;32.70;44.60;;;;;;5024330;28;20077;-54
2022/08/11 11:20:47;;;;;;;3.72;0.32;;;32.20;44.10;;;;;;5028585;28;20049;-54
2022/08/11 11:23:35;;;;;;;3.63;0.22;;;31.90;45.30;;;;;;5028638;28;20081;-52
2022/08/11 11:26:18;;;;;;;2.15;0.40;;;31.80;45.20;;;;;;5026508;28;20045;-52
2022/08/11 11:28:56;;;;;;;2.40;0.30;;;31.60;45.60;;;;;;5027434;28;20511;-53
2022/08/11 11:32:18;;;;;;;2.88;0.30;;;31.30;46.10;;;;;;5026277;28;20069;-53
2022/08/11 11:35:05;;;;;;;1.33;0.30;;;31.10;45.20;;;;;;4964995;28;20075;-53
2022/08/11 11:37:36;;;;;;;1.90;0.38;;;30.90;45.70;;;;;;4966068;28;20086;-53
2022/08/11 11:40:10;;;;;;;4.60;0.40;;;30.70;46.00;;;;;;5012516;28;20107;-54
2022/08/11 11:42:40;;;;;;;1.92;0.30;;;30.70;48.00;;;;;;5010405;28;20380;-53
2022/08/11 11:45:08;;;;;;;2.97;0.30;;;30.60;46.90;;;;;;5027700;28;20049;-53
2022/08/11 11:47:36;;;;;;;3.97;0.40;;;30.60;46.50;;;;;;5026987;28;20045;-53
2022/08/11 11:50:03;;;;;;;3.10;0.30;;;30.50;46.90;;;;;;5027917;28;20029;-53
2022/08/11 11:52:29;;;;;;;2.53;0.30;;;30.40;47.30;;;;;;5028344;28;20523;-53
2022/08/11 11:54:57;;;;;;;6.07;0.55;;;30.30;46.60;;;;;;5028495;28;20046;-53
2022/08/11 12:02:58;;;;;;;1.83;0.40;;;29.90;46.10;;;;;;5028373;28;20107;-51
2022/08/11 12:05:26;;;;;;;2.10;0.30;;;29.80;47.90;;;;;;5028293;28;20080;-53
2022/08/11 12:08:13;;;;;;;1.60;0.32;;;29.70;48.30;;;;;;5028712;28;20132;-52
2022/08/11 12:13:39;;;;;;;4.95;0.30;;;29.70;48.60;;;;;;5028593;28;20056;-49
2022/08/11 12:13:40;;;;;;;1.42;0.50;;;29.70;48.10;;;;;;5046859;28;20045;-54
2022/08/11 12:16:09;;;;;;;2.20;0.35;;;29.70;48.00;;;;;;5053167;28;20041;-54
2022/08/11 12:18:35;;;;;;;7.65;0.30;;;29.60;47.80;;;;;;5052216;28;20049;-54
2022/08/11 12:21:02;;;;;;;3.33;0.65;;;29.60;48.10;;;;;;5051054;28;20058;-54
2022/08/11 12:29:03;;;;;;;1.00;0.30;;;29.50;49.30;;;;;;5051675;28;20048;-55
2022/08/11 12:31:31;;;;;;;4.45;0.57;;;29.50;48.90;;;;;;5051424;28;20073;-54
2022/08/11 12:34:16;;;;;;;3.45;0.38;;;29.50;49.40;;;;;;5051526;28;20041;-54
2022/08/11 12:37:11;;;;;;;1.00;0.30;;;29.50;47.90;;;;;;5050708;28;20526;-54
2022/08/11 12:45:27;;;;;;;2.00;0.30;;;29.40;48.80;;;;;;5011989;28;20133;-54
2022/08/11 12:54:09;;;;;;;2.78;0.30;;;29.40;48.00;;;;;;5010706;28;20049;-54
2022/08/11 13:05:06;;;;;;;1.52;0.32;;;29.30;47.60;;;;;;5011253;28;20052;-54
2022/08/11 13:07:33;;;;;;;1.08;0.20;;;29.30;48.50;;;;;;5010985;28;20403;-55
2022/08/11 13:10:02;;;;;;;2.05;0.65;;;29.30;48.60;;;;;;5011606;28;20069;-55
2022/08/11 13:12:49;;;;;;;2.92;0.30;;;29.30;48.90;;;;;;5011437;28;20037;-55
2022/08/11 13:15:19;;;;;;;1.83;0.30;;;29.30;49.80;;;;;;5011218;28;20100;-55
2022/08/11 13:17:47;;;;;;;1.00;0.40;;;29.30;49.40;;;;;;5011315;28;20052;-54
2022/08/11 13:20:21;;;;;;;1.75;0.40;;;29.30;48.80;;;;;;5011852;28;20124;-54
2022/08/11 13:22:57;;;;;;;1.75;0.40;;;29.20;49.20;;;;;;5050323;28;20033;-55
2022/08/11 13:25:25;;;;;;;0.77;0.15;;;29.20;47.20;;;;;;5050399;28;20045;-55
2022/08/11 13:27:54;;;;;;;2.97;0.20;;;29.20;47.10;;;;;;5049404;28;20045;-55
2022/08/11 13:33:09;;;;;;;2.55;0.30;;;29.10;47.90;;;;;;5028895;28;20052;-55
2022/08/11 13:35:37;;;;;;;1.17;0.40;;;29.10;48.30;;;;;;5028966;28;20450;-55
2022/08/11 13:38:04;;;;;;;1.98;0.30;;;29.10;49.10;;;;;;5029189;28;20072;-55
2022/08/11 13:40:31;;;;;;;0.80;0.20;;;29.10;47.70;;;;;;5029404;28;20053;-55
2022/08/11 13:42:58;;;;;;;2.88;0.28;;;29.10;48.10;;;;;;5029482;28;20092;-55
2022/08/11 13:45:26;;;;;;;2.55;0.30;;;29.10;48.80;;;;;;5029316;28;20048;-55
2022/08/11 13:47:55;;;;;;;4.13;0.30;;;29.10;48.10;;;;;;5028194;28;20057;-55
2022/08/11 13:51:29;;;;;;;2.63;0.30;;;29.10;48.70;;;;;;5028669;28;20091;-55
2022/08/11 13:53:09;;;;;;;5.43;1.05;;;29.20;48.90;;;;;;5028143;28;20041;-56
2022/08/11 13:55:35;;;;;;;3.60;0.40;;;29.20;49.60;;;;;;5028919;28;20120;-55
2022/08/11 13:58:01;;;;;;;5.63;0.40;;;29.10;49.50;;;;;;5028359;28;20033;-56
2022/08/11 14:00:30;;;;;;;2.67;0.20;;;29.10;49.80;;;;;;5028322;28;20039;-55
2022/08/11 14:02:57;;;;;;;2.13;0.40;;;29.10;50.40;;;;;;5027404;28;20095;-55
2022/08/11 14:05:30;;;;;;;3.90;0.30;;;29.10;49.80;;;;;;5028650;28;20116;-56
2022/08/11 14:08:02;;;;;;;1.25;0.22;;;29.10;50.50;;;;;;5026847;28;20565;-55
2022/08/11 14:10:31;;;;;;;4.10;0.40;;;29.00;49.50;;;;;;5027926;28;20491;-55
2022/08/11 14:15:52;;;;;;;2.05;0.30;;;28.90;50.30;;;;;;5027725;28;20514;-55
2022/08/11 14:18:25;;;;;;;0.98;0.35;;;28.90;50.50;;;;;;5028348;28;20069;-55
2022/08/11 14:23:43;;;;;;;1.83;0.40;;;28.90;50.20;;;;;;5025782;28;20045;-55
2022/08/11 14:26:22;;;;;;;2.55;0.20;;;28.80;50.80;;;;;;5028806;28;20045;-55
2022/08/11 14:28:50;;;;;;;1.63;0.32;;;28.80;51.00;;;;;;5026057;28;20558;-55
2022/08/11 14:31:17;;;;;;;3.72;0.30;;;28.80;50.90;;;;;;5026444;28;20065;-56
2022/08/11 14:33:44;;;;;;;1.65;0.30;;;28.80;51.10;;;;;;5027129;28;20041;-55
2022/08/11 14:36:11;;;;;;;1.80;0.30;;;28.80;51.90;;;;;;5022668;28;20461;-55
2022/08/11 14:38:39;;;;;;;2.03;0.30;;;28.70;51.50;;;;;;5026893;28;20041;-55
2022/08/11 14:49:23;;;;;;;2.28;0.32;;;28.60;51.00;;;;;;5026921;28;20102;-55
2022/08/11 14:51:52;;;;;;;0.70;0.30;;;28.50;51.30;;;;;;5026429;28;20049;-55
2022/08/11 14:57:02;;;;;;;2.15;0.30;;;28.50;50.90;;;;;;5026539;28;20091;-55
2022/08/11 14:59:29;;;;;;;1.33;0.40;;;28.40;51.40;;;;;;5027334;28;20732;-55
2022/08/11 15:04:40;;;;;;;3.50;0.40;;;28.40;51.60;;;;;;5027250;28;20140;-55
2022/08/11 15:07:06;;;;;;;3.42;0.50;;;28.40;52.10;;;;;;5027651;28;20099;-54
2022/08/11 15:09:32;;;;;;;3.92;0.30;;;28.30;51.60;;;;;;5029004;28;20053;-55
2022/08/11 15:12:07;;;;;;;3.85;0.40;;;28.20;50.20;;;;;;5028414;28;20049;-55
2022/08/11 15:17:21;;;;;;;1.13;0.30;;;28.20;51.40;;;;;;5028840;28;20414;-55
2022/08/11 15:25:19;;;;;;;2.70;0.50;;;28.00;51.00;;;;;;5027886;28;20052;-55
2022/08/11 15:38:57;;;;;;;1.85;0.30;;;27.90;53.40;;;;;;5027924;28;20048;-55
2022/08/11 15:47:02;;;;;;;2.33;0.30;;;27.80;51.50;;;;;;5027815;28;20087;-55
2022/08/11 15:49:33;;;;;;;2.20;0.20;;;27.80;52.10;;;;;;5029157;28;20041;-55
2022/08/11 15:52:17;;;;;;;4.00;0.30;;;27.70;52.90;;;;;;5028831;28;20050;-55
2022/08/11 15:54:48;;;;;;;2.08;0.43;;;27.70;54.00;;;;;;5031343;28;20041;-55
2022/08/11 16:05:22;;;;;;;6.65;0.40;;;27.40;55.20;;;;;;5032168;28;20475;-55
2022/08/11 16:07:50;;;;;;;4.50;0.50;;;27.30;55.80;;;;;;5031344;28;20057;-55
2022/08/11 16:10:20;;;;;;;3.83;1.17;;;27.30;56.50;;;;;;5031957;28;20030;-55
2022/08/11 16:18:20;;;;;;;3.33;0.90;;;27.20;55.80;;;;;;5032195;28;20045;-55
2022/08/11 16:20:50;;;;;;;5.05;1.20;;;27.10;56.00;;;;;;5032073;28;20112;-55
2022/08/11 16:23:18;;;;;;;3.20;0.45;;;27.10;56.30;;;;;;5030935;28;20048;-55
2022/08/11 16:25:45;;;;;;;4.50;0.70;;;27.10;55.60;;;;;;5031243;28;20052;-55
2022/08/11 16:28:13;;;;;;;2.05;0.40;;;27.00;56.10;;;;;;5030648;28;20029;-55
2022/08/11 16:30:42;;;;;;;2.03;0.40;;;27.00;56.80;;;;;;5031152;28;20033;-55
2022/08/11 16:33:10;;;;;;;3.30;0.77;;;26.90;56.70;;;;;;5030733;28;20052;-55
2022/08/11 16:38:34;;;;;;;3.47;0.60;;;26.80;57.20;;;;;;5029243;28;20071;-55
2022/08/11 16:41:11;;;;;;;6.88;0.68;;;26.80;57.70;;;;;;5017847;28;20045;-55
2022/08/11 16:49:17;;;;;;;2.75;0.40;;;26.60;58.40;;;;;;5029631;28;20589;-55
2022/08/11 16:51:43;;;;;;;3.47;0.40;;;26.60;57.80;;;;;;5029636;28;20038;-55
2022/08/11 16:54:09;;;;;;;2.75;0.50;;;26.50;57.50;;;;;;5027787;28;20045;-55
2022/08/11 16:56:44;;;;;;;1.48;0.30;;;26.50;58.10;;;;;;5029681;28;20056;-55
2022/08/11 16:59:17;;;;;;;2.97;0.45;;;26.40;59.60;;;;;;5028565;28;20102;-55
2022/08/11 17:01:47;;;;;;;3.58;0.45;;;26.30;59.80;;;;;;5029724;28;20045;-55
2022/08/11 17:18:39;;;;;;;2.65;0.45;;;26.10;55.80;;;;;;5029038;28;20051;-56
2022/08/11 17:21:07;;;;;;;1.65;0.40;;;26.00;56.10;;;;;;5029734;28;20081;-55
2022/08/11 17:23:50;;;;;;;1.55;0.43;;;26.00;56.00;;;;;;5025512;28;20049;-43
2022/08/11 17:26:57;;;;;;;0.50;0.30;;;26.00;55.80;;;;;;5023779;28;20403;-44
2022/08/11 17:29:29;;;;;;;3.10;0.45;;;25.90;56.40;;;;;;5025545;28;20038;-43
2022/08/11 17:37:29;;;;;;;2.97;0.57;;;25.90;57.10;;;;;;5025172;28;20056;-45
2022/08/11 17:39:57;;;;;;;2.33;0.45;;;25.90;58.60;;;;;;5023490;28;20080;-45
2022/08/11 17:50:45;;;;;;;2.50;0.80;;;25.70;57.80;;;;;;5024278;28;20037;-44
2022/08/11 18:01:51;;;;;;;4.35;0.50;;;25.50;59.20;;;;;;4953029;28;20505;-44
2022/08/11 18:04:18;;;;;;;5.00;0.60;;;25.40;59.50;;;;;;4954805;28;20079;-43
2022/08/11 18:06:45;;;;;;;5.00;0.70;;;25.30;59.80;;;;;;4988854;28;20380;-43
